Raymond, Canada
Current Conditions -  °F | °C
As of 6:00 PM on Saturday 25 Oct 2014 (Local Time) from CYQL Reporting Station
Scattered Clouds Scattered Clouds  
Wind Chill: 52°   Ceiling: Unl
Heat Index: 52°   Visibility: 40mi
Dew Point: 39°   Wind: 7mph
Humidity: 62%   Direction: 150°SSE
Pressure: 29.61"   Gusts: NA
Location:  49.47°N, 112.66°W
Report Text: CYQL 260000Z 15006KT 40SM FEW150 SCT270 11/04 A2961 RMK AC1CI2 SLP042 DENSITY ALT 3600FT
Loading
Personal Weather Stations






























Interactive Weather Map
Tropical Storm Tracking
New forecast layout! Learn more

10-Day Weather Forecast

Advertisements
Track Severe Weather on mobile